Time;durP1;ratioP1;P1;durP2;ratioP2;P2;SDS_P1;SDS_P2;PMS_P1;PMS_P2;Temp;Humidity;BMP_temperature;BMP_pressure;BME280_temperature;BME280_humidity;BME280_pressure;Samples;Min_cycle;Max_cycle;Signal;HPM_P1;HPM_P2
2022/01/03 00:00:49;;;;;;;1.87;1.10;;;10.50;1.00;;;;;;5012839;28;20541;-76
2022/01/03 00:03:19;;;;;;;1.47;0.70;;;10.50;1.00;;;;;;5008327;28;20427;-76
2022/01/03 00:05:45;;;;;;;2.00;1.07;;;10.50;1.00;;;;;;5010835;28;20506;-76
2022/01/03 00:08:11;;;;;;;2.30;1.00;;;10.40;1.00;;;;;;5013097;28;20511;-76
2022/01/03 00:10:37;;;;;;;1.10;1.00;;;10.50;1.00;;;;;;5004233;28;20176;-76
2022/01/03 00:13:05;;;;;;;3.17;0.90;;;10.60;1.00;;;;;;5013356;28;20570;-76
2022/01/03 00:15:31;;;;;;;6.30;1.30;;;10.60;1.00;;;;;;5011854;28;20427;-76
2022/01/03 00:17:56;;;;;;;3.93;1.03;;;10.70;1.00;;;;;;5013054;28;20472;-76
2022/01/03 00:20:23;;;;;;;2.83;1.30;;;11.10;1.00;;;;;;5008485;28;20403;-76
2022/01/03 00:23:07;;;;;;;1.40;1.20;;;10.60;1.00;;;;;;5012401;28;20228;-76
2022/01/03 00:25:37;;;;;;;2.13;1.70;;;10.70;1.00;;;;;;5005555;28;20787;-76
2022/01/03 00:28:21;;;;;;;2.57;1.63;;;10.60;1.00;;;;;;5012820;28;20398;-80
2022/01/03 00:30:53;;;;;;;2.60;1.50;;;10.70;1.00;;;;;;5012703;28;20848;-81
2022/01/03 00:33:19;;;;;;;6.17;1.87;;;10.70;1.00;;;;;;5006696;28;20435;-80
2022/01/03 00:35:50;;;;;;;1.93;1.40;;;10.80;1.00;;;;;;5012149;28;20402;-80
2022/01/03 00:38:18;;;;;;;8.03;2.10;;;10.80;1.00;;;;;;5005999;28;20895;-80
2022/01/03 00:40:44;;;;;;;3.97;1.93;;;10.80;1.00;;;;;;5012765;28;20871;-80
2022/01/03 00:43:10;;;;;;;3.97;1.83;;;10.80;1.00;;;;;;5012659;28;20517;-80
2022/01/03 00:45:36;;;;;;;3.20;1.20;;;10.80;1.00;;;;;;4993492;28;20477;-80
2022/01/03 00:48:07;;;;;;;4.60;2.20;;;11.00;1.00;;;;;;5012018;28;20204;-80
2022/01/03 00:50:33;;;;;;;3.80;1.87;;;10.90;1.00;;;;;;5011785;28;20624;-80
2022/01/03 00:52:59;;;;;;;6.00;1.70;;;10.90;1.00;;;;;;5009121;28;20394;-80
2022/01/03 00:55:24;;;;;;;3.00;1.73;;;11.00;1.00;;;;;;5007632;28;20409;-80
2022/01/03 00:58:09;;;;;;;4.97;1.70;;;11.00;1.00;;;;;;5004847;28;20206;-80
2022/01/03 01:00:39;;;;;;;1.60;1.50;;;11.00;1.00;;;;;;5002690;28;20180;-80
2022/01/03 01:03:10;;;;;;;7.93;1.90;;;11.10;1.00;;;;;;5016039;28;20507;-80
2022/01/03 01:05:40;;;;;;;4.83;1.23;;;11.00;1.00;;;;;;5014821;28;20517;-80
2022/01/03 01:08:06;;;;;;;4.60;1.40;;;11.00;1.00;;;;;;5012363;28;20396;-80
2022/01/03 01:10:35;;;;;;;4.37;1.73;;;11.10;1.00;;;;;;4983444;28;20391;-80
2022/01/03 01:13:03;;;;;;;4.00;1.23;;;10.90;1.00;;;;;;5014137;28;20420;-77
2022/01/03 01:15:29;;;;;;;6.47;1.43;;;11.00;1.00;;;;;;5015309;28;20516;-76
2022/01/03 01:17:56;;;;;;;5.20;1.40;;;11.00;1.00;;;;;;5013847;28;20394;-76
2022/01/03 01:20:24;;;;;;;4.87;1.20;;;10.90;1.00;;;;;;5016148;28;20773;-76
2022/01/03 01:22:51;;;;;;;4.70;0.90;;;10.90;1.00;;;;;;4997790;28;20439;-76
2022/01/03 01:27:49;;;;;;;1.53;0.90;;;10.90;1.00;;;;;;5004390;28;20528;-76
2022/01/03 01:30:21;;;;;;;1.23;0.80;;;10.80;1.00;;;;;;5015996;28;20404;-80
2022/01/03 01:33:03;;;;;;;0.97;0.60;;;10.80;1.00;;;;;;5005887;28;20416;-80
2022/01/03 01:35:43;;;;;;;3.20;0.50;;;10.80;1.00;;;;;;5009413;28;20435;-80
2022/01/03 01:38:11;;;;;;;1.13;0.70;;;10.80;1.00;;;;;;4997859;28;20474;-80
2022/01/03 01:40:49;;;;;;;3.20;0.60;;;10.80;1.00;;;;;;5010612;28;20780;-80
2022/01/03 01:43:25;;;;;;;1.30;0.60;;;10.70;1.00;;;;;;5009365;28;20424;-80
2022/01/03 01:45:51;;;;;;;2.20;0.87;;;10.80;1.00;;;;;;5001682;28;20461;-80
2022/01/03 01:48:19;;;;;;;1.43;0.67;;;10.70;1.00;;;;;;5000664;28;20417;-80
2022/01/03 01:50:50;;;;;;;0.70;0.70;;;10.80;1.00;;;;;;5012932;28;20412;-80
2022/01/03 01:53:21;;;;;;;2.37;0.73;;;10.80;1.00;;;;;;5000133;28;21577;-80
2022/01/03 01:55:50;;;;;;;0.50;0.50;;;10.70;1.00;;;;;;4999164;28;20484;-80
2022/01/03 01:58:29;;;;;;;2.83;0.70;;;10.70;1.00;;;;;;5010888;28;20429;-76
2022/01/03 02:01:05;;;;;;;1.07;0.67;;;10.70;1.00;;;;;;5007276;28;20428;-76
2022/01/03 02:03:47;;;;;;;2.80;1.00;;;10.70;1.00;;;;;;5013371;28;20401;-76
2022/01/03 02:06:44;;;;;;;0.63;0.50;;;10.60;1.00;;;;;;5009441;28;20458;-76
2022/01/03 02:09:29;;;;;;;1.93;0.70;;;10.50;1.00;;;;;;5015210;28;20412;-76
2022/01/03 02:11:57;;;;;;;1.47;0.50;;;10.40;1.00;;;;;;5013202;28;20725;-76
2022/01/03 02:14:25;;;;;;;2.93;1.20;;;10.40;1.00;;;;;;4997568;28;20420;-80
2022/01/03 02:16:53;;;;;;;4.97;0.63;;;10.30;1.00;;;;;;5013857;28;20416;-80
2022/01/03 02:19:24;;;;;;;2.47;0.80;;;10.30;1.00;;;;;;5014118;28;20445;-80
2022/01/03 02:21:54;;;;;;;0.60;0.60;;;10.20;1.00;;;;;;5015100;28;20407;-80
2022/01/03 02:24:20;;;;;;;1.20;0.67;;;10.50;1.00;;;;;;5013159;28;20915;-80
2022/01/03 02:26:48;;;;;;;1.83;0.80;;;10.10;1.00;;;;;;5007302;28;20476;-80
2022/01/03 02:29:13;;;;;;;3.83;0.60;;;10.00;1.00;;;;;;5012623;28;20439;-80
2022/01/03 02:31:39;;;;;;;0.60;0.60;;;9.90;1.00;;;;;;5004228;28;20402;-80
2022/01/03 02:34:05;;;;;;;4.40;0.70;;;9.80;1.00;;;;;;5009566;28;20177;-80
2022/01/03 02:36:32;;;;;;;4.30;0.50;;;9.70;1.00;;;;;;5003559;28;20177;-80
2022/01/03 02:38:58;;;;;;;6.27;0.73;;;10.00;1.00;;;;;;5012612;28;20213;-80
2022/01/03 02:41:24;;;;;;;1.40;0.63;;;9.60;1.00;;;;;;5014642;28;20420;-80
2022/01/03 02:43:50;;;;;;;1.17;0.67;;;9.80;1.00;;;;;;5014319;28;20199;-77
2022/01/03 02:46:18;;;;;;;5.97;0.97;;;9.70;1.00;;;;;;5013305;28;20447;-77
2022/01/03 02:48:44;;;;;;;0.73;0.60;;;9.60;1.00;;;;;;5008871;28;20425;-76
2022/01/03 02:51:13;;;;;;;3.07;0.70;;;9.70;1.00;;;;;;5006371;28;20778;-76
2022/01/03 02:53:40;;;;;;;0.50;0.50;;;9.70;1.00;;;;;;5011389;28;20203;-76
2022/01/03 02:56:06;;;;;;;2.13;0.97;;;9.50;1.00;;;;;;5012628;28;20462;-76
2022/01/03 02:58:32;;;;;;;6.60;0.70;;;9.50;1.00;;;;;;5004391;28;20439;-76
2022/01/03 03:00:57;;;;;;;1.47;0.70;;;9.40;1.00;;;;;;4996993;28;20398;-80
2022/01/03 03:03:24;;;;;;;4.37;0.80;;;9.50;1.00;;;;;;5013543;28;20189;-80
2022/01/03 03:05:50;;;;;;;2.87;0.60;;;9.40;1.00;;;;;;4996607;28;20192;-80
2022/01/03 03:08:17;;;;;;;3.57;0.67;;;9.40;1.00;;;;;;5012865;28;20515;-80
2022/01/03 03:10:43;;;;;;;4.43;0.80;;;9.50;1.00;;;;;;5014010;28;20927;-80
2022/01/03 03:13:09;;;;;;;3.80;0.70;;;9.40;1.00;;;;;;5008180;28;20427;-81
2022/01/03 03:15:35;;;;;;;2.77;0.90;;;9.50;1.00;;;;;;5005938;28;20998;-76
2022/01/03 03:18:02;;;;;;;2.50;0.53;;;9.50;1.00;;;;;;5011943;28;20523;-76
2022/01/03 03:20:30;;;;;;;2.87;0.70;;;9.30;1.00;;;;;;5014291;28;20507;-76
2022/01/03 03:22:58;;;;;;;3.80;0.80;;;9.90;1.00;;;;;;4995534;28;20443;-76
2022/01/03 03:25:27;;;;;;;1.23;0.90;;;9.20;1.00;;;;;;5012550;28;20454;-76
2022/01/03 03:28:14;;;;;;;8.00;1.00;;;9.20;1.00;;;;;;5004342;28;20416;-76
2022/01/03 03:30:47;;;;;;;2.43;0.90;;;9.20;1.00;;;;;;5013960;28;20495;-80
2022/01/03 03:33:18;;;;;;;9.23;1.10;;;9.20;1.00;;;;;;5009801;28;20496;-80
2022/01/03 03:35:44;;;;;;;5.07;0.87;;;9.10;1.00;;;;;;5013625;28;20412;-80
2022/01/03 03:38:11;;;;;;;2.80;0.80;;;9.10;1.00;;;;;;5011508;28;20442;-80
2022/01/03 03:40:38;;;;;;;2.10;0.93;;;9.10;1.00;;;;;;5013082;28;20424;-80
2022/01/03 03:43:04;;;;;;;2.10;0.87;;;9.10;1.00;;;;;;5013692;28;20429;-80
2022/01/03 03:45:29;;;;;;;1.30;0.70;;;9.10;1.00;;;;;;5012942;28;20953;-77
2022/01/03 03:47:57;;;;;;;2.80;1.00;;;9.10;1.00;;;;;;4995552;28;20507;-76
2022/01/03 03:50:24;;;;;;;0.60;0.60;;;9.20;1.00;;;;;;5012435;28;20177;-76
2022/01/03 03:52:51;;;;;;;1.90;0.77;;;9.30;1.00;;;;;;5012787;28;20789;-76
2022/01/03 03:55:17;;;;;;;2.00;1.03;;;9.10;1.00;;;;;;5012270;28;21000;-76
2022/01/03 03:57:43;;;;;;;1.57;0.80;;;10.50;1.00;;;;;;5007188;28;20429;-76
2022/01/03 04:00:12;;;;;;;2.80;1.00;;;9.50;1.00;;;;;;5009639;28;20173;-80
2022/01/03 04:02:37;;;;;;;14.53;1.00;;;9.20;1.00;;;;;;4997594;28;20162;-80
2022/01/03 04:05:04;;;;;;;1.50;0.47;;;9.80;1.00;;;;;;4991295;28;20609;-80
2022/01/03 04:07:29;;;;;;;3.83;0.67;;;9.40;1.00;;;;;;5004865;28;20231;-80
2022/01/03 04:09:55;;;;;;;0.90;0.70;;;9.40;1.00;;;;;;5012658;28;20420;-80
2022/01/03 04:12:21;;;;;;;0.87;0.57;;;9.40;1.00;;;;;;5013082;28;20651;-80
2022/01/03 04:14:46;;;;;;;2.13;1.00;;;9.50;1.00;;;;;;5007077;28;20259;-77
2022/01/03 04:17:12;;;;;;;2.10;0.90;;;9.50;1.00;;;;;;5005164;28;20360;-76
2022/01/03 04:19:39;;;;;;;4.63;0.80;;;10.50;1.00;;;;;;5011849;28;20181;-76
2022/01/03 04:22:05;;;;;;;1.17;0.67;;;11.10;1.00;;;;;;5004498;28;20241;-76
2022/01/03 04:24:30;;;;;;;2.77;0.90;;;9.90;1.00;;;;;;5012018;28;20846;-76
2022/01/03 04:26:56;;;;;;;1.13;0.93;;;9.60;1.00;;;;;;5004446;28;20432;-77
2022/01/03 04:29:22;;;;;;;4.30;0.70;;;9.70;1.00;;;;;;5011515;28;20185;-77
2022/01/03 04:31:47;;;;;;;2.17;0.90;;;10.20;1.00;;;;;;5010146;28;20612;-76
2022/01/03 04:34:13;;;;;;;2.30;0.77;;;10.40;1.00;;;;;;5012878;28;20181;-76
2022/01/03 04:36:40;;;;;;;2.53;0.80;;;9.50;1.00;;;;;;5012843;28;20243;-77
2022/01/03 04:39:07;;;;;;;0.80;0.60;;;9.50;1.00;;;;;;5016082;28;20447;-76
2022/01/03 04:41:34;;;;;;;2.03;0.73;;;9.70;1.00;;;;;;5013460;28;20427;-76
2022/01/03 04:44:00;;;;;;;2.37;0.63;;;10.10;1.00;;;;;;5016652;28;20957;-76
2022/01/03 04:46:26;;;;;;;1.17;0.70;;;10.20;1.00;;;;;;5016375;28;21026;-80
2022/01/03 04:48:54;;;;;;;0.50;0.50;;;9.50;1.00;;;;;;5007409;28;20455;-80
2022/01/03 04:51:19;;;;;;;8.87;1.70;;;9.50;1.00;;;;;;5011588;28;20394;-80
2022/01/03 04:53:45;;;;;;;0.40;0.37;;;9.70;1.00;;;;;;5016687;28;20416;-80
2022/01/03 04:56:12;;;;;;;0.40;0.40;;;9.90;1.00;;;;;;4996580;28;20181;-80
2022/01/03 04:58:39;;;;;;;2.83;0.60;;;9.40;1.00;;;;;;5010825;28;20196;-80
2022/01/03 05:01:05;;;;;;;6.70;0.60;;;9.50;1.00;;;;;;5015918;28;20394;-77
2022/01/03 05:03:31;;;;;;;5.17;0.77;;;9.60;1.00;;;;;;5011522;28;20927;-77
2022/01/03 05:05:57;;;;;;;1.90;0.60;;;9.40;1.00;;;;;;5008689;28;20430;-77
2022/01/03 05:08:23;;;;;;;1.27;0.60;;;9.30;1.00;;;;;;5011901;28;20408;-76
2022/01/03 05:10:48;;;;;;;0.80;0.70;;;9.50;1.00;;;;;;5014775;28;20778;-76
2022/01/03 05:13:14;;;;;;;0.50;0.50;;;9.30;1.00;;;;;;5016194;28;20181;-76
2022/01/03 05:15:40;;;;;;;4.73;0.80;;;9.30;1.00;;;;;;5016080;28;20264;-80
2022/01/03 05:18:05;;;;;;;6.90;0.60;;;9.20;1.00;;;;;;5012267;28;20542;-80
2022/01/03 05:20:31;;;;;;;2.83;0.87;;;10.30;1.00;;;;;;4987097;28;20188;-80
2022/01/03 05:22:57;;;;;;;1.07;0.60;;;9.70;1.00;;;;;;4994134;28;20637;-80
2022/01/03 05:25:23;;;;;;;5.30;0.50;;;;;;;;;;5009244;28;20193;-80
2022/01/03 05:27:49;;;;;;;0.50;0.43;;;9.10;1.00;;;;;;5007075;28;20181;-80
2022/01/03 05:30:14;;;;;;;0.40;0.40;;;9.90;1.00;;;;;;5015350;28;20494;-75
2022/01/03 05:32:40;;;;;;;1.60;0.53;;;10.80;1.00;;;;;;5007983;28;20423;-76
2022/01/03 05:35:06;;;;;;;2.83;0.63;;;9.40;1.00;;;;;;5015880;28;20534;-76
2022/01/03 05:37:32;;;;;;;1.43;0.80;;;9.30;1.00;;;;;;5009115;28;21001;-76
2022/01/03 05:39:58;;;;;;;0.57;0.57;;;9.40;1.00;;;;;;5015025;28;20942;-76
2022/01/03 05:42:23;;;;;;;1.67;0.73;;;11.10;1.00;;;;;;5013297;28;20195;-76
2022/01/03 05:44:49;;;;;;;1.20;0.60;;;9.50;1.00;;;;;;4998091;28;20307;-75
2022/01/03 05:47:15;;;;;;;1.17;0.80;;;9.80;1.00;;;;;;5014794;28;20204;-80
2022/01/03 05:49:41;;;;;;;1.53;0.60;;;9.50;1.00;;;;;;5014587;28;20177;-80
2022/01/03 05:52:06;;;;;;;0.70;0.50;;;9.50;1.00;;;;;;5009435;28;20185;-80
2022/01/03 05:54:36;;;;;;;1.23;0.57;;;9.30;1.00;;;;;;5007900;28;20264;-80
2022/01/03 05:57:02;;;;;;;0.90;0.60;;;9.40;1.00;;;;;;5014916;28;20628;-80
2022/01/03 05:59:27;;;;;;;0.43;0.43;;;9.30;1.00;;;;;;5008749;28;20481;-80
2022/01/03 06:01:54;;;;;;;1.90;0.70;;;9.40;1.00;;;;;;4995835;28;20177;-80
2022/01/03 06:04:34;;;;;;;0.70;0.40;;;9.30;1.00;;;;;;5009391;28;20175;-80
2022/01/03 06:07:05;;;;;;;1.00;0.60;;;9.40;1.00;;;;;;5013305;28;20477;-79
2022/01/03 06:09:31;;;;;;;2.90;1.10;;;9.30;1.00;;;;;;4989748;28;20487;-80
2022/01/03 06:11:58;;;;;;;1.23;0.83;;;9.70;1.00;;;;;;5015076;28;20432;-80
2022/01/03 06:14:24;;;;;;;0.50;0.50;;;9.60;1.00;;;;;;5012038;28;20798;-80
2022/01/03 06:16:51;;;;;;;0.67;0.67;;;9.90;1.00;;;;;;5014705;28;20429;-80
2022/01/03 06:19:17;;;;;;;3.20;0.57;;;10.40;1.00;;;;;;5013670;28;20436;-80
2022/01/03 06:21:43;;;;;;;1.60;0.70;;;9.50;1.00;;;;;;5014905;28;20432;-80
2022/01/03 06:24:14;;;;;;;0.80;0.57;;;9.10;1.00;;;;;;5006395;28;20812;-80
2022/01/03 06:26:42;;;;;;;1.23;0.70;;;9.20;1.00;;;;;;5014530;28;20451;-80
2022/01/03 06:29:10;;;;;;;1.10;0.70;;;9.10;1.00;;;;;;5014417;28;20915;-80
2022/01/03 06:31:36;;;;;;;7.50;0.80;;;9.10;1.00;;;;;;5003921;28;20400;-76
2022/01/03 06:34:02;;;;;;;4.90;0.70;;;9.00;1.00;;;;;;4995500;28;20494;-75
2022/01/03 06:36:31;;;;;;;2.53;0.80;;;9.10;1.00;;;;;;4976426;28;20499;-76
2022/01/03 06:38:57;;;;;;;5.53;0.90;;;9.00;1.00;;;;;;5004846;28;20801;-76
2022/01/03 06:41:23;;;;;;;1.73;0.70;;;8.90;1.00;;;;;;4997391;28;20415;-76
2022/01/03 06:43:50;;;;;;;2.53;0.60;;;9.00;1.00;;;;;;5001400;28;20422;-76
2022/01/03 06:46:16;;;;;;;1.23;0.73;;;9.00;1.00;;;;;;5003777;28;20463;-80
2022/01/03 06:48:43;;;;;;;2.60;0.87;;;9.80;1.00;;;;;;5004114;28;20459;-81
2022/01/03 06:51:09;;;;;;;2.23;0.70;;;8.90;1.00;;;;;;5007006;28;20420;-80
2022/01/03 06:53:36;;;;;;;1.57;0.60;;;9.90;1.00;;;;;;5008579;28;20878;-80
2022/01/03 06:56:02;;;;;;;1.57;0.50;;;8.90;1.00;;;;;;5003906;28;20448;-80
2022/01/03 06:58:28;;;;;;;2.57;1.03;;;8.80;1.00;;;;;;5011276;28;20424;-81
2022/01/03 07:00:55;;;;;;;0.60;0.60;;;8.80;1.00;;;;;;5004155;28;20758;-76
2022/01/03 07:03:20;;;;;;;1.93;0.97;;;8.80;1.00;;;;;;5008817;28;20179;-80
2022/01/03 07:05:46;;;;;;;1.87;0.70;;;8.80;1.00;;;;;;5009384;28;20456;-80
2022/01/03 07:08:12;;;;;;;4.13;0.70;;;8.70;1.00;;;;;;5009326;28;20173;-80
2022/01/03 07:10:37;;;;;;;9.50;0.80;;;8.80;1.00;;;;;;4991133;28;20199;-80
2022/01/03 07:13:03;;;;;;;1.33;0.90;;;8.80;1.00;;;;;;5005767;28;20185;-82
2022/01/03 07:20:58;;;;;;;8.23;0.97;;;8.80;1.00;;;;;;5002221;28;20861;-76
2022/01/03 07:23:23;;;;;;;0.70;0.50;;;8.80;1.00;;;;;;5006303;28;20468;-76
2022/01/03 07:25:50;;;;;;;3.23;0.80;;;8.90;1.00;;;;;;5003486;28;20559;-76
2022/01/03 07:28:17;;;;;;;3.97;1.23;;;8.80;1.00;;;;;;5004163;28;20430;-76
2022/01/03 07:30:44;;;;;;;0.60;0.60;;;8.80;1.00;;;;;;5008682;28;20458;-76
2022/01/03 07:33:10;;;;;;;2.73;0.70;;;8.80;1.00;;;;;;5009459;28;20829;-76
2022/01/03 07:35:35;;;;;;;0.90;0.70;;;9.50;1.00;;;;;;4990715;28;20439;-76
2022/01/03 07:38:03;;;;;;;1.47;1.10;;;8.90;1.00;;;;;;5008479;28;20439;-77
2022/01/03 07:40:29;;;;;;;1.60;0.53;;;8.90;1.00;;;;;;5009031;28;20192;-77
2022/01/03 07:42:55;;;;;;;0.70;0.60;;;9.80;1.00;;;;;;5012013;28;20435;-76
2022/01/03 07:45:21;;;;;;;2.57;0.97;;;8.80;1.00;;;;;;4998000;28;20455;-76
2022/01/03 07:47:47;;;;;;;1.43;0.73;;;10.10;1.00;;;;;;5004556;28;20916;-76
2022/01/03 07:50:13;;;;;;;0.47;0.47;;;10.50;1.00;;;;;;5001441;28;20204;-76
2022/01/03 07:52:39;;;;;;;2.17;0.80;;;8.70;1.00;;;;;;5007656;28;20741;-76
2022/01/03 07:55:07;;;;;;;0.50;0.50;;;9.10;1.00;;;;;;4992213;28;20447;-76
2022/01/03 07:57:33;;;;;;;10.93;0.67;;;8.80;1.00;;;;;;5004926;28;20173;-76
2022/01/03 07:59:58;;;;;;;5.40;0.60;;;8.80;1.00;;;;;;5009082;28;20420;-76
2022/01/03 08:02:24;;;;;;;3.67;0.73;;;8.80;1.00;;;;;;4992561;28;20495;-76
2022/01/03 08:04:50;;;;;;;0.63;0.50;;;9.30;1.00;;;;;;5003272;28;20288;-76
2022/01/03 08:07:16;;;;;;;2.07;0.90;;;10.10;1.00;;;;;;5012574;28;20506;-76
2022/01/03 08:09:42;;;;;;;3.93;1.00;;;8.80;1.00;;;;;;5006478;28;20988;-76
2022/01/03 08:12:08;;;;;;;2.93;0.60;;;8.80;1.00;;;;;;5010409;28;20656;-77
2022/01/03 08:14:34;;;;;;;2.53;1.63;;;8.80;1.00;;;;;;5003108;28;20268;-77
2022/01/03 08:17:00;;;;;;;2.10;1.23;;;8.90;1.00;;;;;;5006039;28;20506;-77
2022/01/03 08:19:26;;;;;;;1.90;1.17;;;8.90;1.00;;;;;;5003834;28;20719;-75
2022/01/03 08:21:51;;;;;;;1.37;1.10;;;8.90;1.00;;;;;;4997473;28;20185;-76
2022/01/03 08:24:18;;;;;;;3.57;1.10;;;9.10;1.00;;;;;;5003508;28;20193;-76
2022/01/03 08:26:44;;;;;;;2.53;0.97;;;9.40;1.00;;;;;;4981966;28;20212;-76
2022/01/03 08:29:10;;;;;;;1.20;0.90;;;9.90;1.00;;;;;;5004271;28;20424;-76
2022/01/03 08:31:37;;;;;;;5.03;0.83;;;10.20;1.00;;;;;;4999331;28;20467;-76
2022/01/03 08:34:04;;;;;;;3.63;1.27;;;9.20;1.00;;;;;;4986229;28;20907;-80
2022/01/03 08:36:29;;;;;;;3.40;1.33;;;9.80;1.00;;;;;;5006064;28;20854;-80
2022/01/03 08:38:55;;;;;;;2.03;1.20;;;9.00;1.00;;;;;;4992247;28;20531;-80
2022/01/03 08:41:21;;;;;;;4.47;1.00;;;9.10;1.00;;;;;;5002138;28;20571;-81
2022/01/03 08:43:47;;;;;;;7.57;1.23;;;9.20;1.00;;;;;;5002912;28;20709;-81
2022/01/03 08:46:13;;;;;;;7.87;1.50;;;9.10;1.00;;;;;;5005776;28;20478;-80
2022/01/03 08:48:38;;;;;;;2.60;0.90;;;10.60;1.00;;;;;;5007121;28;20173;-76
2022/01/03 08:51:06;;;;;;;5.47;0.90;;;9.80;1.00;;;;;;5006668;28;20562;-76
2022/01/03 08:53:32;;;;;;;12.23;1.53;;;9.30;1.00;;;;;;5000660;28;20184;-76
2022/01/03 08:55:59;;;;;;;3.70;1.00;;;9.30;1.00;;;;;;5006236;28;20428;-76
2022/01/03 08:58:25;;;;;;;3.60;1.20;;;9.40;1.00;;;;;;5004875;28;20200;-76
2022/01/03 09:00:51;;;;;;;2.73;0.83;;;9.50;1.00;;;;;;4993651;28;20451;-76
2022/01/03 09:03:18;;;;;;;4.53;1.30;;;9.50;1.00;;;;;;5009095;28;20997;-80
2022/01/03 09:05:44;;;;;;;2.53;1.23;;;9.60;1.00;;;;;;5004827;28;20805;-80
2022/01/03 09:08:11;;;;;;;6.23;1.20;;;9.50;1.00;;;;;;4991757;28;20429;-80
2022/01/03 09:10:37;;;;;;;5.03;1.40;;;9.60;1.00;;;;;;4999029;28;21078;-81
2022/01/03 09:13:03;;;;;;;4.60;1.13;;;11.50;1.00;;;;;;4994403;28;20503;-80
2022/01/03 09:15:31;;;;;;;6.83;1.37;;;10.00;1.00;;;;;;5004936;28;20428;-80
2022/01/03 09:17:56;;;;;;;8.10;1.40;;;9.70;1.00;;;;;;5004669;28;20493;-80
2022/01/03 09:20:22;;;;;;;3.33;1.30;;;9.60;1.00;;;;;;5005145;28;20498;-81
2022/01/03 09:22:54;;;;;;;3.13;1.20;;;9.90;1.00;;;;;;5011223;28;20181;-80
2022/01/03 09:30:49;;;;;;;5.50;1.10;;;9.80;1.00;;;;;;5010622;28;20486;-80
2022/01/03 09:33:15;;;;;;;6.03;1.60;;;9.80;1.00;;;;;;5010015;28;20420;-81
2022/01/03 09:35:42;;;;;;;2.90;1.20;;;9.90;1.00;;;;;;5008517;28;20192;-80
2022/01/03 09:38:14;;;;;;;7.57;1.73;;;9.90;1.00;;;;;;5010453;28;20216;-80
2022/01/03 09:40:45;;;;;;;1.73;1.20;;;9.80;1.00;;;;;;5003735;28;20418;-80
2022/01/03 09:43:16;;;;;;;5.20;1.70;;;9.90;1.00;;;;;;4989053;28;20432;-80
2022/01/03 09:45:46;;;;;;;7.70;1.27;;;10.00;1.00;;;;;;4986519;28;20982;-80
2022/01/03 09:48:14;;;;;;;4.73;0.80;;;10.10;1.00;;;;;;5007048;28;20423;-80
2022/01/03 09:50:40;;;;;;;4.20;1.13;;;10.10;1.00;;;;;;5000508;28;20417;-80
2022/01/03 09:53:06;;;;;;;9.50;0.90;;;10.20;1.00;;;;;;5006313;28;20670;-80
2022/01/03 09:55:33;;;;;;;4.13;1.33;;;10.50;1.00;;;;;;5005064;28;20420;-80
2022/01/03 09:57:58;;;;;;;1.73;1.00;;;11.20;1.00;;;;;;5009856;28;20782;-80
2022/01/03 10:00:25;;;;;;;6.03;1.13;;;11.20;1.00;;;;;;5001440;28;20420;-80
2022/01/03 10:02:53;;;;;;;7.40;1.40;;;10.90;1.00;;;;;;5009809;28;20273;-77
2022/01/03 10:05:20;;;;;;;4.80;0.97;;;10.40;1.00;;;;;;4990506;28;20471;-76
2022/01/03 10:07:45;;;;;;;2.17;1.10;;;10.40;1.00;;;;;;5003072;28;20531;-76
2022/01/03 10:10:12;;;;;;;6.00;1.60;;;10.60;1.00;;;;;;5010342;28;20503;-77
2022/01/03 10:12:38;;;;;;;9.30;1.03;;;10.50;1.00;;;;;;5011054;28;20184;-76
2022/01/03 10:15:05;;;;;;;4.20;1.10;;;10.70;1.00;;;;;;5003195;28;20424;-76
2022/01/03 10:17:36;;;;;;;1.70;0.90;;;10.60;1.00;;;;;;4989582;28;20458;-76
2022/01/03 10:20:03;;;;;;;4.30;1.30;;;10.60;1.00;;;;;;5013432;28;20492;-76
2022/01/03 10:22:31;;;;;;;16.73;1.40;;;10.70;1.00;;;;;;5001073;28;20405;-76
2022/01/03 10:24:59;;;;;;;4.20;1.00;;;10.90;1.00;;;;;;5001791;28;20468;-76
2022/01/03 10:27:47;;;;;;;4.60;1.33;;;10.80;1.00;;;;;;5000113;28;20432;-76
2022/01/03 10:30:13;;;;;;;4.23;1.20;;;10.80;1.00;;;;;;5006636;28;20431;-76
2022/01/03 10:32:40;;;;;;;3.80;1.07;;;10.70;1.00;;;;;;5006053;28;20440;-76
2022/01/03 10:35:15;;;;;;;8.30;1.50;;;10.80;1.00;;;;;;5005900;28;20463;-77
2022/01/03 10:37:42;;;;;;;4.00;1.30;;;10.80;1.00;;;;;;5008925;28;20430;-77
2022/01/03 10:40:25;;;;;;;2.03;1.10;;;10.70;1.00;;;;;;5011847;28;20410;-76
2022/01/03 10:42:52;;;;;;;5.53;1.27;;;10.70;1.00;;;;;;5009504;28;20523;-76
2022/01/03 10:45:34;;;;;;;4.77;1.23;;;10.80;1.00;;;;;;5008050;28;20450;-76
2022/01/03 10:48:00;;;;;;;7.37;1.23;;;10.80;1.00;;;;;;5008593;28;20919;-79
2022/01/03 10:50:28;;;;;;;2.20;1.00;;;10.90;1.00;;;;;;4975363;28;20423;-79
2022/01/03 10:52:54;;;;;;;2.30;1.00;;;10.90;1.00;;;;;;5004626;28;20928;-80
2022/01/03 10:55:29;;;;;;;11.20;1.50;;;11.00;1.00;;;;;;5007239;28;20430;-80
2022/01/03 10:58:02;;;;;;;7.50;1.77;;;11.00;1.00;;;;;;4987578;28;20848;-79
2022/01/03 11:00:33;;;;;;;3.40;1.60;;;11.00;1.00;;;;;;5004336;28;20433;-79
2022/01/03 11:03:37;;;;;;;4.10;1.77;;;11.10;1.00;;;;;;5008383;28;20522;-80
2022/01/03 11:06:22;;;;;;;3.47;1.47;;;11.10;1.00;;;;;;4998448;28;20931;-80
2022/01/03 11:11:52;;;;;;;3.77;1.73;;;11.10;1.00;;;;;;5002501;28;20415;-81
2022/01/03 11:14:39;;;;;;;2.60;1.30;;;11.10;1.00;;;;;;5012665;28;20463;-81
2022/01/03 11:17:25;;;;;;;9.37;1.97;;;11.10;1.00;;;;;;5005467;28;20494;-81
2022/01/03 11:19:51;;;;;;;2.90;1.67;;;11.10;1.00;;;;;;5008039;28;20446;-80
2022/01/03 11:22:42;;;;;;;3.17;1.03;;;11.10;1.00;;;;;;5011646;28;20398;-79
2022/01/03 11:25:09;;;;;;;2.50;1.60;;;11.10;1.00;;;;;;5006949;28;20551;-80
2022/01/03 11:27:38;;;;;;;7.57;1.60;;;11.20;1.00;;;;;;5000064;28;20451;-80
2022/01/03 11:30:05;;;;;;;4.20;1.27;;;11.20;1.00;;;;;;5010614;28;20498;-80
2022/01/03 11:32:33;;;;;;;10.70;1.67;;;11.20;1.00;;;;;;5008604;28;20427;-80
2022/01/03 11:35:00;;;;;;;2.83;1.27;;;11.30;1.00;;;;;;5011440;28;20428;-76
2022/01/03 11:37:32;;;;;;;2.77;1.23;;;11.30;1.00;;;;;;5010609;28;20831;-76
2022/01/03 11:39:59;;;;;;;7.90;1.80;;;11.30;1.00;;;;;;5003760;28;20904;-76
2022/01/03 11:42:25;;;;;;;5.50;1.97;;;11.30;1.00;;;;;;5008358;28;20485;-76
2022/01/03 11:44:51;;;;;;;14.10;1.60;;;11.40;1.00;;;;;;5011158;28;20523;-76
2022/01/03 11:47:18;;;;;;;6.90;2.20;;;11.40;1.00;;;;;;5008217;28;20655;-77
2022/01/03 11:49:44;;;;;;;7.40;1.50;;;11.50;1.00;;;;;;5010207;28;20398;-80
2022/01/03 11:52:14;;;;;;;5.77;2.03;;;11.40;1.00;;;;;;5007212;28;20486;-80
2022/01/03 11:54:41;;;;;;;5.47;1.67;;;11.60;1.00;;;;;;5008214;28;20436;-80
2022/01/03 11:57:17;;;;;;;4.13;1.70;;;11.60;1.00;;;;;;4984489;28;20873;-80
2022/01/03 12:05:50;;;;;;;17.37;2.40;;;11.60;1.00;;;;;;4998004;28;20863;-81
2022/01/03 12:08:24;;;;;;;7.10;1.67;;;11.70;1.00;;;;;;4980955;28;20429;-80
2022/01/03 12:10:50;;;;;;;4.73;1.37;;;11.80;1.00;;;;;;5008368;28;20427;-81
2022/01/03 12:13:19;;;;;;;4.50;1.90;;;11.80;1.00;;;;;;5005130;28;20446;-80
2022/01/03 12:15:45;;;;;;;9.07;2.30;;;11.80;1.00;;;;;;4989101;28;20436;-77
2022/01/03 12:18:29;;;;;;;10.73;1.53;;;12.10;1.00;;;;;;5010134;28;20431;-78
2022/01/03 12:20:55;;;;;;;6.13;1.97;;;11.90;1.00;;;;;;5012611;28;20427;-78
2022/01/03 12:23:42;;;;;;;3.00;1.40;;;12.00;1.00;;;;;;5003304;28;20443;-81
2022/01/03 12:26:12;;;;;;;9.10;2.00;;;11.90;1.00;;;;;;5002352;28;20462;-79
2022/01/03 12:29:09;;;;;;;4.63;1.53;;;12.00;1.00;;;;;;5000596;28;20435;-78
2022/01/03 12:32:06;;;;;;;3.37;1.40;;;12.00;1.00;;;;;;5006210;28;20398;-78
2022/01/03 12:34:32;;;;;;;4.87;1.43;;;12.00;1.00;;;;;;5007234;28;20785;-78
2022/01/03 12:37:18;;;;;;;7.70;1.40;;;12.10;1.00;;;;;;5011014;28;20486;-77
2022/01/03 12:40:05;;;;;;;5.90;1.53;;;14.20;1.00;;;;;;4985917;28;20460;-77
2022/01/03 12:42:49;;;;;;;11.20;1.30;;;12.10;1.00;;;;;;5001491;28;20455;-77
2022/01/03 12:45:16;;;;;;;5.33;1.50;;;12.20;1.00;;;;;;5002366;28;20431;-77
2022/01/03 12:47:43;;;;;;;1.57;1.03;;;12.20;1.00;;;;;;5003759;28;20439;-77
2022/01/03 12:50:29;;;;;;;7.83;1.37;;;12.30;1.00;;;;;;4985737;28;20428;-80
2022/01/03 12:53:02;;;;;;;3.80;1.60;;;12.30;1.00;;;;;;4986749;28;20920;-79
2022/01/03 12:55:36;;;;;;;4.53;1.57;;;12.30;1.00;;;;;;5000344;28;20477;-79
2022/01/03 12:58:32;;;;;;;8.00;1.47;;;12.50;1.00;;;;;;4996456;28;20393;-80
2022/01/03 13:01:12;;;;;;;6.73;1.60;;;12.50;1.00;;;;;;4956948;28;20801;-80
2022/01/03 13:03:44;;;;;;;7.00;1.47;;;12.50;1.00;;;;;;4973198;28;20788;-80
2022/01/03 13:06:24;;;;;;;12.37;2.40;;;12.60;1.00;;;;;;4963104;28;20910;-79
2022/01/03 13:08:54;;;;;;;3.60;1.47;;;12.70;1.00;;;;;;4960010;28;20476;-80
2022/01/03 13:11:44;;;;;;;8.03;1.70;;;12.80;1.00;;;;;;4958256;28;20496;-81
2022/01/03 13:14:20;;;;;;;8.07;1.87;;;12.90;1.00;;;;;;4970719;28;20403;-80
2022/01/03 13:16:50;;;;;;;6.63;1.30;;;12.90;1.00;;;;;;4966927;28;20428;-82
2022/01/03 13:19:22;;;;;;;4.30;1.00;;;13.00;1.00;;;;;;4959461;28;20441;-79
2022/01/03 13:21:50;;;;;;;10.13;1.73;;;13.10;1.00;;;;;;4969446;28;20828;-80
2022/01/03 13:24:29;;;;;;;3.13;1.27;;;13.20;1.00;;;;;;4970315;28;20437;-79
2022/01/03 13:27:06;;;;;;;5.67;1.60;;;13.30;1.00;;;;;;4950241;28;20431;-79
2022/01/03 13:29:36;;;;;;;8.13;1.47;;;13.40;1.00;;;;;;4968158;28;20960;-79
2022/01/03 13:32:01;;;;;;;11.50;1.90;;;13.50;1.00;;;;;;4963484;28;20388;-80
2022/01/03 13:34:30;;;;;;;4.30;1.90;;;13.60;1.00;;;;;;4973534;28;20416;-80